sensor_id;sensor_type;location;lat;lon;timestamp;pressure;altitude;pressure_sealevel;temperature;humidity
23473;BME280;11909;52.516;13.564;2023-03-22T00:01:39;100543.59;;;9.28;100.00
23473;BME280;11909;52.516;13.564;2023-03-22T00:04:10;100539.47;;;9.26;100.00
23473;BME280;11909;52.516;13.564;2023-03-22T00:06:37;100530.72;;;9.24;100.00
23473;BME280;11909;52.516;13.564;2023-03-22T00:09:05;100537.56;;;9.21;100.00
23473;BME280;11909;52.516;13.564;2023-03-22T00:11:33;100533.72;;;9.17;100.00
23473;BME280;11909;52.516;13.564;2023-03-22T00:14:00;100533.47;;;9.18;100.00
23473;BME280;11909;52.516;13.564;2023-03-22T00:16:28;100527.72;;;9.15;100.00
23473;BME280;11909;52.516;13.564;2023-03-22T00:18:56;100530.19;;;9.11;100.00
23473;BME280;11909;52.516;13.564;2023-03-22T00:21:25;100535.09;;;9.09;100.00
23473;BME280;11909;52.516;13.564;2023-03-22T00:23:53;100532.09;;;9.11;100.00
23473;BME280;11909;52.516;13.564;2023-03-22T00:26:21;100524.72;;;9.06;100.00
23473;BME280;11909;52.516;13.564;2023-03-22T00:28:48;100527.19;;;9.08;100.00
23473;BME280;11909;52.516;13.564;2023-03-22T00:31:16;100520.34;;;9.05;100.00
23473;BME280;11909;52.516;13.564;2023-03-22T00:33:45;100517.34;;;9.07;100.00
23473;BME280;11909;52.516;13.564;2023-03-22T00:36:13;100522.25;;;9.04;100.00
23473;BME280;11909;52.516;13.564;2023-03-22T00:38:42;100516.50;;;9.11;100.00
23473;BME280;11909;52.516;13.564;2023-03-22T00:41:12;100510.22;;;9.06;100.00
23473;BME280;11909;52.516;13.564;2023-03-22T00:43:41;100512.69;;;9.02;100.00
23473;BME280;11909;52.516;13.564;2023-03-22T00:46:10;100516.50;;;9.01;100.00
23473;BME280;11909;52.516;13.564;2023-03-22T00:48:38;100514.31;;;9.08;100.00
23473;BME280;11909;52.516;13.564;2023-03-22T00:51:07;100506.94;;;9.03;100.00
23473;BME280;11909;52.516;13.564;2023-03-22T00:53:35;100509.94;;;9.02;100.00
23473;BME280;11909;52.516;13.564;2023-03-22T00:56:05;100511.56;;;9.03;100.00
23473;BME280;11909;52.516;13.564;2023-03-22T00:58:33;100509.94;;;9.02;100.00
23473;BME280;11909;52.516;13.564;2023-03-22T01:01:01;100508.84;;;9.03;100.00
23473;BME280;11909;52.516;13.564;2023-03-22T01:03:28;100513.22;;;8.99;100.00
23473;BME280;11909;52.516;13.564;2023-03-22T01:05:56;100507.19;;;9.07;100.00
23473;BME280;11909;52.516;13.564;2023-03-22T01:08:24;100512.69;;;9.02;100.00
23473;BME280;11909;52.516;13.564;2023-03-22T01:10:58;100512.13;;;9.05;100.00
23473;BME280;11909;52.516;13.564;2023-03-22T01:13:28;100509.38;;;9.05;100.00
23473;BME280;11909;52.516;13.564;2023-03-22T01:15:56;100512.13;;;9.00;100.00
23473;BME280;11909;52.516;13.564;2023-03-22T01:18:23;100513.78;;;8.96;100.00
23473;BME280;11909;52.516;13.564;2023-03-22T01:20:51;100502.28;;;8.94;100.00
23473;BME280;11909;52.516;13.564;2023-03-22T01:23:19;100500.13;;;8.91;100.00
23473;BME280;11909;52.516;13.564;2023-03-22T01:25:46;100507.50;;;8.90;100.00
23473;BME280;11909;52.516;13.564;2023-03-22T01:28:14;100499.28;;;8.90;100.00
23473;BME280;11909;52.516;13.564;2023-03-22T01:30:43;100495.72;;;8.95;100.00
23473;BME280;11909;52.516;13.564;2023-03-22T01:33:11;100497.09;;;8.87;100.00
23473;BME280;11909;52.516;13.564;2023-03-22T01:35:38;100495.47;;;8.86;100.00
23473;BME280;11909;52.516;13.564;2023-03-22T01:38:06;100487.53;;;8.79;100.00
23473;BME280;11909;52.516;13.564;2023-03-22T01:40:34;100488.34;;;8.85;100.00
23473;BME280;11909;52.516;13.564;2023-03-22T01:43:02;100477.66;;;8.83;100.00
23473;BME280;11909;52.516;13.564;2023-03-22T01:45:36;100476.03;;;8.82;100.00
23473;BME280;11909;52.516;13.564;2023-03-22T01:48:09;100474.09;;;8.88;100.00
23473;BME280;11909;52.516;13.564;2023-03-22T01:50:41;100473.28;;;8.93;100.00
23473;BME280;11909;52.516;13.564;2023-03-22T01:53:13;100465.63;;;8.89;100.00
23473;BME280;11909;52.516;13.564;2023-03-22T01:55:45;100461.78;;;8.85;100.00
23473;BME280;11909;52.516;13.564;2023-03-22T01:58:13;100460.44;;;8.83;100.00
23473;BME280;11909;52.516;13.564;2023-03-22T02:00:44;100456.31;;;8.80;100.00
23473;BME280;11909;52.516;13.564;2023-03-22T02:03:18;100450.03;;;8.85;100.00
23473;BME280;11909;52.516;13.564;2023-03-22T02:05:49;100447.28;;;8.85;100.00
23473;BME280;11909;52.516;13.564;2023-03-22T02:08:16;100452.22;;;8.83;100.00
23473;BME280;11909;52.516;13.564;2023-03-22T02:10:45;100453.59;;;8.80;100.00
23473;BME280;11909;52.516;13.564;2023-03-22T02:16:15;100444.28;;;8.81;100.00
23473;BME280;11909;52.516;13.564;2023-03-22T02:18:58;100450.03;;;8.85;100.00
23473;BME280;11909;52.516;13.564;2023-03-22T02:21:55;100449.50;;;8.78;100.00
23473;BME280;11909;52.516;13.564;2023-03-22T02:24:57;100449.75;;;8.81;100.00
23473;BME280;11909;52.516;13.564;2023-03-22T02:27:52;100448.94;;;8.81;100.00
23473;BME280;11909;52.516;13.564;2023-03-22T02:30:57;100444.56;;;8.74;100.00
23473;BME280;11909;52.516;13.564;2023-03-22T02:33:58;100443.75;;;8.74;100.00
23473;BME280;11909;52.516;13.564;2023-03-22T02:36:46;100442.91;;;8.73;100.00
23473;BME280;11909;52.516;13.564;2023-03-22T02:39:28;100450.59;;;8.77;100.00
23473;BME280;11909;52.516;13.564;2023-03-22T02:42:08;100443.22;;;8.72;100.00
23473;BME280;11909;52.516;13.564;2023-03-22T02:44:41;100446.19;;;8.75;100.00
23473;BME280;11909;52.516;13.564;2023-03-22T02:47:18;100447.84;;;8.71;100.00
23473;BME280;11909;52.516;13.564;2023-03-22T02:49:53;100444.00;;;8.72;100.00
23473;BME280;11909;52.516;13.564;2023-03-22T02:52:26;100437.19;;;8.65;100.00
23473;BME280;11909;52.516;13.564;2023-03-22T02:55:03;100443.50;;;8.60;100.00
23473;BME280;11909;52.516;13.564;2023-03-22T02:57:35;100436.09;;;8.55;100.00
23473;BME280;11909;52.516;13.564;2023-03-22T03:00:07;100444.31;;;8.55;100.00
23473;BME280;11909;52.516;13.564;2023-03-22T03:02:42;100438.28;;;8.58;100.00
23473;BME280;11909;52.516;13.564;2023-03-22T03:05:12;100435.84;;;8.57;100.00
23473;BME280;11909;52.516;13.564;2023-03-22T03:07:42;100436.41;;;8.54;100.00
23473;BME280;11909;52.516;13.564;2023-03-22T03:10:14;100434.72;;;8.53;100.00
23473;BME280;11909;52.516;13.564;2023-03-22T03:12:43;100434.72;;;8.42;100.00
23473;BME280;11909;52.516;13.564;2023-03-22T03:15:13;100429.50;;;8.41;100.00
23473;BME280;11909;52.516;13.564;2023-03-22T03:17:54;100424.31;;;8.39;100.00
23473;BME280;11909;52.516;13.564;2023-03-22T03:20:34;100424.88;;;8.36;100.00
23473;BME280;11909;52.516;13.564;2023-03-22T03:23:13;100425.69;;;8.31;100.00
23473;BME280;11909;52.516;13.564;2023-03-22T03:25:52;100429.50;;;8.30;100.00
23473;BME280;11909;52.516;13.564;2023-03-22T03:28:28;100426.50;;;8.27;100.00
23473;BME280;11909;52.516;13.564;2023-03-22T03:31:10;100429.25;;;8.32;100.00
23473;BME280;11909;52.516;13.564;2023-03-22T03:33:45;100429.78;;;8.34;100.00
23473;BME280;11909;52.516;13.564;2023-03-22T03:36:16;100439.09;;;8.33;100.00
23473;BME280;11909;52.516;13.564;2023-03-22T03:38:47;100439.91;;;8.23;100.00
23473;BME280;11909;52.516;13.564;2023-03-22T03:41:19;100442.63;;;8.18;100.00
23473;BME280;11909;52.516;13.564;2023-03-22T03:43:48;100442.66;;;8.23;100.00
23473;BME280;11909;52.516;13.564;2023-03-22T03:46:17;100446.19;;;8.24;100.00
23473;BME280;11909;52.516;13.564;2023-03-22T03:48:47;100449.19;;;8.22;100.00
23473;BME280;11909;52.516;13.564;2023-03-22T03:51:16;100448.09;;;8.18;100.00
23473;BME280;11909;52.516;13.564;2023-03-22T03:53:44;100446.19;;;8.18;100.00
23473;BME280;11909;52.516;13.564;2023-03-22T03:56:12;100447.56;;;8.26;100.00
23473;BME280;11909;52.516;13.564;2023-03-22T03:58:41;100451.09;;;8.16;100.00
23473;BME280;11909;52.516;13.564;2023-03-22T04:01:09;100445.09;;;8.20;100.00
23473;BME280;11909;52.516;13.564;2023-03-22T04:03:37;100434.41;;;8.08;100.00
23473;BME280;11909;52.516;13.564;2023-03-22T04:06:05;100434.97;;;7.99;100.00
23473;BME280;11909;52.516;13.564;2023-03-22T04:08:34;100436.84;;;7.99;100.00
23473;BME280;11909;52.516;13.564;2023-03-22T04:11:01;100436.59;;;8.11;100.00
23473;BME280;11909;52.516;13.564;2023-03-22T04:13:29;100427.56;;;8.00;100.00
23473;BME280;11909;52.516;13.564;2023-03-22T04:15:58;100431.69;;;8.02;100.00
23473;BME280;11909;52.516;13.564;2023-03-22T04:18:27;100422.66;;;8.02;100.00
23473;BME280;11909;52.516;13.564;2023-03-22T04:20:55;100431.38;;;7.99;100.00
23473;BME280;11909;52.516;13.564;2023-03-22T04:23:23;100437.94;;;7.98;100.00
23473;BME280;11909;52.516;13.564;2023-03-22T04:25:51;100442.31;;;7.88;100.00
23473;BME280;11909;52.516;13.564;2023-03-22T04:28:19;100438.75;;;7.83;100.00
23473;BME280;11909;52.516;13.564;2023-03-22T04:30:49;100439.03;;;7.92;100.00
23473;BME280;11909;52.516;13.564;2023-03-22T04:33:19;100437.41;;;7.96;100.00
23473;BME280;11909;52.516;13.564;2023-03-22T04:35:48;100439.31;;;7.95;100.00
23473;BME280;11909;52.516;13.564;2023-03-22T04:38:22;100442.56;;;7.92;100.00
23473;BME280;11909;52.516;13.564;2023-03-22T04:40:50;100441.22;;;7.84;100.00
23473;BME280;11909;52.516;13.564;2023-03-22T04:43:18;100433.81;;;7.85;100.00
23473;BME280;11909;52.516;13.564;2023-03-22T04:45:45;100440.13;;;7.85;100.00
23473;BME280;11909;52.516;13.564;2023-03-22T04:48:14;100440.09;;;7.80;100.00
23473;BME280;11909;52.516;13.564;2023-03-22T04:50:44;100431.88;;;7.75;100.00
23473;BME280;11909;52.516;13.564;2023-03-22T04:53:11;100429.44;;;7.79;100.00
23473;BME280;11909;52.516;13.564;2023-03-22T04:55:39;100433.28;;;7.78;100.00
23473;BME280;11909;52.516;13.564;2023-03-22T04:58:08;100425.88;;;7.78;100.00
23473;BME280;11909;52.516;13.564;2023-03-22T05:00:36;100424.53;;;7.75;100.00
23473;BME280;11909;52.516;13.564;2023-03-22T05:03:04;100424.78;;;7.69;100.00
23473;BME280;11909;52.516;13.564;2023-03-22T05:05:32;100426.72;;;7.79;100.00
23473;BME280;11909;52.516;13.564;2023-03-22T05:08:01;100425.31;;;7.71;100.00
23473;BME280;11909;52.516;13.564;2023-03-22T05:10:29;100413.06;;;7.79;100.00
23473;BME280;11909;52.516;13.564;2023-03-22T05:12:56;100409.25;;;7.85;100.00
23473;BME280;11909;52.516;13.564;2023-03-22T05:15:24;100408.44;;;7.84;100.00
23473;BME280;11909;52.516;13.564;2023-03-22T05:17:52;100415.00;;;7.88;100.00
23473;BME280;11909;52.516;13.564;2023-03-22T05:20:21;100397.22;;;7.81;100.00
23473;BME280;11909;52.516;13.564;2023-03-22T05:22:48;100403.47;;;7.76;100.00
23473;BME280;11909;52.516;13.564;2023-03-22T05:25:18;100413.06;;;7.84;100.00
23473;BME280;11909;52.516;13.564;2023-03-22T05:27:45;100406.75;;;7.83;100.00
23473;BME280;11909;52.516;13.564;2023-03-22T05:30:15;100397.22;;;7.75;100.00
23473;BME280;11909;52.516;13.564;2023-03-22T05:32:43;100401.03;;;7.74;100.00
23473;BME280;11909;52.516;13.564;2023-03-22T05:35:11;100404.56;;;7.75;100.00
23473;BME280;11909;52.516;13.564;2023-03-22T05:37:39;100404.31;;;7.77;100.00
23473;BME280;11909;52.516;13.564;2023-03-22T05:40:08;100401.59;;;7.82;100.00
23473;BME280;11909;52.516;13.564;2023-03-22T05:42:38;100408.16;;;7.86;100.00
23473;BME280;11909;52.516;13.564;2023-03-22T05:45:07;100408.41;;;7.79;100.00
23473;BME280;11909;52.516;13.564;2023-03-22T05:47:34;100403.22;;;7.78;100.00
23473;BME280;11909;52.516;13.564;2023-03-22T05:50:06;100404.88;;;7.94;100.00
23473;BME280;11909;52.516;13.564;2023-03-22T05:52:34;100408.97;;;7.92;100.00
23473;BME280;11909;52.516;13.564;2023-03-22T05:55:02;100403.50;;;7.97;100.00
23473;BME280;11909;52.516;13.564;2023-03-22T05:57:30;100399.41;;;7.94;100.00
23473;BME280;11909;52.516;13.564;2023-03-22T05:59:59;100395.56;;;7.95;100.00
23473;BME280;11909;52.516;13.564;2023-03-22T06:02:27;100393.41;;;7.92;100.00
23473;BME280;11909;52.516;13.564;2023-03-22T06:04:55;100392.03;;;7.89;100.00
23473;BME280;11909;52.516;13.564;2023-03-22T06:07:22;100400.50;;;7.93;100.00
23473;BME280;11909;52.516;13.564;2023-03-22T06:09:50;100395.59;;;8.00;100.00
23473;BME280;11909;52.516;13.564;2023-03-22T06:12:18;100398.06;;;8.07;100.00
23473;BME280;11909;52.516;13.564;2023-03-22T06:14:49;100400.22;;;8.05;100.00
23473;BME280;11909;52.516;13.564;2023-03-22T06:17:19;100399.44;;;8.04;100.00
23473;BME280;11909;52.516;13.564;2023-03-22T06:19:46;100393.41;;;7.97;100.00
23473;BME280;11909;52.516;13.564;2023-03-22T06:22:17;100389.03;;;8.01;100.00
23473;BME280;11909;52.516;13.564;2023-03-22T06:24:45;100397.50;;;8.00;100.00
23473;BME280;11909;52.516;13.564;2023-03-22T06:27:13;100389.31;;;8.00;100.00
23473;BME280;11909;52.516;13.564;2023-03-22T06:29:41;100391.53;;;8.08;100.00
23473;BME280;11909;52.516;13.564;2023-03-22T06:32:08;100398.06;;;8.12;100.00
23473;BME280;11909;52.516;13.564;2023-03-22T06:34:38;100395.06;;;8.09;100.00
23473;BME280;11909;52.516;13.564;2023-03-22T06:37:05;100398.34;;;8.00;100.00
23473;BME280;11909;52.516;13.564;2023-03-22T06:39:33;100401.63;;;8.02;100.00
23473;BME280;11909;52.516;13.564;2023-03-22T06:42:01;100398.06;;;8.23;100.00
23473;BME280;11909;52.516;13.564;2023-03-22T06:44:29;100400.00;;;8.22;100.00
23473;BME280;11909;52.516;13.564;2023-03-22T06:46:56;100395.88;;;8.20;100.00
23473;BME280;11909;52.516;13.564;2023-03-22T06:49:24;100407.91;;;8.24;100.00
23473;BME280;11909;52.516;13.564;2023-03-22T06:51:54;100402.72;;;8.32;100.00
23473;BME280;11909;52.516;13.564;2023-03-22T06:54:22;100404.91;;;8.20;100.00
23473;BME280;11909;52.516;13.564;2023-03-22T06:56:49;100403.00;;;8.21;100.00
23473;BME280;11909;52.516;13.564;2023-03-22T06:59:17;100412.84;;;8.32;100.00
23473;BME280;11909;52.516;13.564;2023-03-22T07:01:45;100413.09;;;8.30;100.00
23473;BME280;11909;52.516;13.564;2023-03-22T07:04:13;100412.56;;;8.28;100.00
23473;BME280;11909;52.516;13.564;2023-03-22T07:06:41;100419.66;;;8.40;100.00
23473;BME280;11909;52.516;13.564;2023-03-22T07:09:10;100413.41;;;8.34;100.00
23473;BME280;11909;52.516;13.564;2023-03-22T07:11:38;100420.78;;;8.44;100.00
23473;BME280;11909;52.516;13.564;2023-03-22T07:14:06;100415.88;;;8.51;100.00
23473;BME280;11909;52.516;13.564;2023-03-22T07:16:33;100414.22;;;8.50;100.00
23473;BME280;11909;52.516;13.564;2023-03-22T07:19:01;100416.69;;;8.57;100.00
23473;BME280;11909;52.516;13.564;2023-03-22T07:21:29;100411.22;;;8.57;100.00
23473;BME280;11909;52.516;13.564;2023-03-22T07:23:57;100413.13;;;8.56;100.00
23473;BME280;11909;52.516;13.564;2023-03-22T07:26:26;100420.78;;;8.59;100.00
23473;BME280;11909;52.516;13.564;2023-03-22T07:28:56;100413.41;;;8.55;100.00
23473;BME280;11909;52.516;13.564;2023-03-22T07:31:23;100401.91;;;8.53;100.00
23473;BME280;11909;52.516;13.564;2023-03-22T07:33:51;100414.50;;;8.64;100.00
23473;BME280;11909;52.516;13.564;2023-03-22T07:36:19;100407.09;;;8.70;100.00
23473;BME280;11909;52.516;13.564;2023-03-22T07:38:49;100410.41;;;8.67;100.00
23473;BME280;11909;52.516;13.564;2023-03-22T07:41:17;100402.97;;;8.72;100.00
23473;BME280;11909;52.516;13.564;2023-03-22T07:43:46;100402.97;;;8.72;100.00
23473;BME280;11909;52.516;13.564;2023-03-22T07:46:25;100410.09;;;8.84;100.00
23473;BME280;11909;52.516;13.564;2023-03-22T07:49:02;100408.69;;;8.92;100.00
23473;BME280;11909;52.516;13.564;2023-03-22T07:51:30;100407.84;;;8.96;100.00
23473;BME280;11909;52.516;13.564;2023-03-22T07:53:58;100407.00;;;9.11;100.00
23473;BME280;11909;52.516;13.564;2023-03-22T07:56:26;100400.19;;;9.03;100.00
23473;BME280;11909;52.516;13.564;2023-03-22T07:58:55;100401.28;;;9.02;100.00
23473;BME280;11909;52.516;13.564;2023-03-22T08:01:23;100402.34;;;9.07;100.00
23473;BME280;11909;52.516;13.564;2023-03-22T08:03:52;100398.53;;;9.08;100.00
23473;BME280;11909;52.516;13.564;2023-03-22T08:06:19;100395.97;;;9.27;100.00
23473;BME280;11909;52.516;13.564;2023-03-22T08:08:47;100387.19;;;9.30;100.00
23473;BME280;11909;52.516;13.564;2023-03-22T08:11:15;100390.19;;;9.39;100.00
23473;BME280;11909;52.516;13.564;2023-03-22T08:13:42;100389.03;;;9.45;100.00
23473;BME280;11909;52.516;13.564;2023-03-22T08:16:12;100387.97;;;9.46;100.00
23473;BME280;11909;52.516;13.564;2023-03-22T08:18:39;100397.75;;;9.57;100.00
23473;BME280;11909;52.516;13.564;2023-03-22T08:21:10;100396.06;;;9.67;100.00
23473;BME280;11909;52.516;13.564;2023-03-22T08:23:38;100389.94;;;9.80;100.00
23473;BME280;11909;52.516;13.564;2023-03-22T08:26:08;100393.44;;;9.91;100.00
23473;BME280;11909;52.516;13.564;2023-03-22T08:28:36;100394.03;;;9.88;100.00
23473;BME280;11909;52.516;13.564;2023-03-22T08:31:09;100383.91;;;9.83;100.00
23473;BME280;11909;52.516;13.564;2023-03-22T08:33:42;100392.25;;;10.02;100.00
23473;BME280;11909;52.516;13.564;2023-03-22T08:36:11;100386.28;;;9.95;100.00
23473;BME280;11909;52.516;13.564;2023-03-22T08:38:39;100381.63;;;9.96;100.00
23473;BME280;11909;52.516;13.564;2023-03-22T08:41:08;100380.75;;;10.06;100.00
23473;BME280;11909;52.516;13.564;2023-03-22T08:43:36;100384.03;;;10.02;100.00
23473;BME280;11909;52.516;13.564;2023-03-22T08:46:04;100378.44;;;10.18;100.00
23473;BME280;11909;52.516;13.564;2023-03-22T08:48:32;100372.38;;;10.21;100.00
23473;BME280;11909;52.516;13.564;2023-03-22T08:51:02;100372.88;;;10.28;100.00
23473;BME280;11909;52.516;13.564;2023-03-22T08:53:31;100382.94;;;10.43;99.96
23473;BME280;11909;52.516;13.564;2023-03-22T08:55:59;100373.06;;;10.42;99.85
23473;BME280;11909;52.516;13.564;2023-03-22T08:58:27;100372.69;;;10.49;99.09
23473;BME280;11909;52.516;13.564;2023-03-22T09:00:55;100363.88;;;10.57;99.27
23473;BME280;11909;52.516;13.564;2023-03-22T09:03:23;100363.03;;;10.57;99.63
23473;BME280;11909;52.516;13.564;2023-03-22T09:05:51;100369.75;;;10.70;98.27
23473;BME280;11909;52.516;13.564;2023-03-22T09:08:20;100363.13;;;10.76;96.97
23473;BME280;11909;52.516;13.564;2023-03-22T09:10:48;100359.47;;;10.86;96.24
23473;BME280;11909;52.516;13.564;2023-03-22T09:13:18;100351.69;;;10.93;95.97
23473;BME280;11909;52.516;13.564;2023-03-22T09:15:46;100350.81;;;10.98;95.18
23473;BME280;11909;52.516;13.564;2023-03-22T09:18:14;100354.81;;;11.05;94.00
23473;BME280;11909;52.516;13.564;2023-03-22T09:20:43;100344.81;;;11.15;93.76
23473;BME280;11909;52.516;13.564;2023-03-22T09:23:11;100339.94;;;11.12;95.02
23473;BME280;11909;52.516;13.564;2023-03-22T09:25:43;100340.13;;;11.15;94.63
23473;BME280;11909;52.516;13.564;2023-03-22T09:28:11;100355.03;;;11.33;93.63
23473;BME280;11909;52.516;13.564;2023-03-22T09:30:39;100344.78;;;11.39;91.92
23473;BME280;11909;52.516;13.564;2023-03-22T09:33:07;100347.00;;;11.37;91.63
23473;BME280;11909;52.516;13.564;2023-03-22T09:35:39;100335.72;;;11.39;91.28
23473;BME280;11909;52.516;13.564;2023-03-22T09:38:08;100341.44;;;11.61;91.67
23473;BME280;11909;52.516;13.564;2023-03-22T09:40:38;100350.13;;;11.69;88.67
23473;BME280;11909;52.516;13.564;2023-03-22T09:43:13;100343.88;;;11.63;90.38
23473;BME280;11909;52.516;13.564;2023-03-22T09:45:45;100335.34;;;11.65;90.77
23473;BME280;11909;52.516;13.564;2023-03-22T09:48:17;100347.50;;;11.97;87.43
23473;BME280;11909;52.516;13.564;2023-03-22T09:50:48;100343.34;;;11.99;88.91
23473;BME280;11909;52.516;13.564;2023-03-22T09:53:17;100346.47;;;11.93;89.29
23473;BME280;11909;52.516;13.564;2023-03-22T09:55:49;100341.19;;;12.15;87.66
23473;BME280;11909;52.516;13.564;2023-03-22T09:58:24;100340.28;;;12.20;87.07
23473;BME280;11909;52.516;13.564;2023-03-22T10:00:57;100329.25;;;12.06;88.43
23473;BME280;11909;52.516;13.564;2023-03-22T10:03:37;100329.69;;;12.27;87.60
23473;BME280;11909;52.516;13.564;2023-03-22T10:06:16;100327.69;;;12.33;86.09
23473;BME280;11909;52.516;13.564;2023-03-22T10:08:52;100327.19;;;12.45;85.25
23473;BME280;11909;52.516;13.564;2023-03-22T10:11:36;100335.78;;;12.57;83.67
23473;BME280;11909;52.516;13.564;2023-03-22T10:14:20;100333.84;;;12.72;83.51
23473;BME280;11909;52.516;13.564;2023-03-22T10:16:53;100329.66;;;12.88;81.99
23473;BME280;11909;52.516;13.564;2023-03-22T10:19:26;100338.72;;;13.03;81.07
23473;BME280;11909;52.516;13.564;2023-03-22T10:21:58;100332.41;;;13.16;80.25
23473;BME280;11909;52.516;13.564;2023-03-22T10:24:30;100338.25;;;13.15;79.42
23473;BME280;11909;52.516;13.564;2023-03-22T10:26:59;100327.22;;;13.15;79.76
23473;BME280;11909;52.516;13.564;2023-03-22T10:29:33;100333.72;;;13.33;77.04
23473;BME280;11909;52.516;13.564;2023-03-22T10:32:12;100328.41;;;13.23;77.08
23473;BME280;11909;52.516;13.564;2023-03-22T10:34:41;100325.34;;;13.24;77.00
23473;BME280;11909;52.516;13.564;2023-03-22T10:37:13;100311.88;;;13.23;77.07
23473;BME280;11909;52.516;13.564;2023-03-22T10:39:43;100306.56;;;13.26;78.75
23473;BME280;11909;52.516;13.564;2023-03-22T10:42:13;100299.31;;;13.30;79.26
23473;BME280;11909;52.516;13.564;2023-03-22T10:44:46;100302.97;;;13.40;77.01
23473;BME280;11909;52.516;13.564;2023-03-22T10:47:18;100306.78;;;13.67;74.32
23473;BME280;11909;52.516;13.564;2023-03-22T10:49:51;100318.78;;;13.85;72.89
23473;BME280;11909;52.516;13.564;2023-03-22T10:52:35;100302.84;;;13.82;73.74
23473;BME280;11909;52.516;13.564;2023-03-22T10:55:08;100312.25;;;13.81;72.25
23473;BME280;11909;52.516;13.564;2023-03-22T10:57:36;100294.06;;;13.80;73.34
23473;BME280;11909;52.516;13.564;2023-03-22T11:00:08;100293.66;;;13.86;73.10
23473;BME280;11909;52.516;13.564;2023-03-22T11:02:44;100295.13;;;13.93;71.46
23473;BME280;11909;52.516;13.564;2023-03-22T11:05:22;100293.56;;;14.00;72.06
23473;BME280;11909;52.516;13.564;2023-03-22T11:07:51;100291.25;;;13.94;72.31
23473;BME280;11909;52.516;13.564;2023-03-22T11:10:26;100283.41;;;13.87;71.26
23473;BME280;11909;52.516;13.564;2023-03-22T11:13:09;100292.13;;;13.80;71.41
23473;BME280;11909;52.516;13.564;2023-03-22T11:15:40;100293.94;;;13.85;71.45
23473;BME280;11909;52.516;13.564;2023-03-22T11:18:12;100291.88;;;13.90;68.76
23473;BME280;11909;52.516;13.564;2023-03-22T11:20:42;100279.59;;;13.97;69.85
23473;BME280;11909;52.516;13.564;2023-03-22T11:23:19;100290.38;;;14.07;68.89
23473;BME280;11909;52.516;13.564;2023-03-22T11:25:49;100280.56;;;14.01;68.32
23473;BME280;11909;52.516;13.564;2023-03-22T11:28:18;100277.81;;;14.01;68.63
23473;BME280;11909;52.516;13.564;2023-03-22T11:31:01;100277.72;;;14.15;67.98
23473;BME280;11909;52.516;13.564;2023-03-22T11:33:29;100275.81;;;14.15;67.87
23473;BME280;11909;52.516;13.564;2023-03-22T11:35:59;100278.78;;;14.28;67.07
23473;BME280;11909;52.516;13.564;2023-03-22T11:38:29;100289.50;;;14.29;65.89
23473;BME280;11909;52.516;13.564;2023-03-22T11:40:59;100277.09;;;14.18;66.23
23473;BME280;11909;52.516;13.564;2023-03-22T11:43:32;100280.53;;;14.24;65.70
23473;BME280;11909;52.516;13.564;2023-03-22T11:46:03;100267.97;;;14.09;65.66
23473;BME280;11909;52.516;13.564;2023-03-22T11:48:31;100264.72;;;14.07;66.43
23473;BME280;11909;52.516;13.564;2023-03-22T11:51:05;100269.78;;;14.13;66.11
23473;BME280;11909;52.516;13.564;2023-03-22T11:53:37;100279.56;;;14.19;65.46
23473;BME280;11909;52.516;13.564;2023-03-22T11:56:08;100271.47;;;14.23;65.71
23473;BME280;11909;52.516;13.564;2023-03-22T11:58:54;100272.31;;;14.32;65.32
23473;BME280;11909;52.516;13.564;2023-03-22T12:01:45;100259.38;;;14.42;65.42
23473;BME280;11909;52.516;13.564;2023-03-22T12:04:17;100263.28;;;14.49;64.45
23473;BME280;11909;52.516;13.564;2023-03-22T12:06:48;100268.16;;;14.53;64.45
23473;BME280;11909;52.516;13.564;2023-03-22T12:09:24;100262.63;;;14.53;63.52
23473;BME280;11909;52.516;13.564;2023-03-22T12:11:56;100262.16;;;14.51;63.56
23473;BME280;11909;52.516;13.564;2023-03-22T12:14:27;100249.97;;;14.52;63.46
23473;BME280;11909;52.516;13.564;2023-03-22T12:17:01;100253.38;;;14.48;62.11
23473;BME280;11909;52.516;13.564;2023-03-22T12:19:48;100241.16;;;14.41;62.50
23473;BME280;11909;52.516;13.564;2023-03-22T12:22:20;100238.47;;;14.58;61.86
23473;BME280;11909;52.516;13.564;2023-03-22T12:24:49;100242.25;;;14.71;61.57
23473;BME280;11909;52.516;13.564;2023-03-22T12:27:20;100239.03;;;14.78;61.62
23473;BME280;11909;52.516;13.564;2023-03-22T12:29:53;100232.22;;;14.84;61.66
23473;BME280;11909;52.516;13.564;2023-03-22T12:32:27;100234.72;;;15.03;59.93
23473;BME280;11909;52.516;13.564;2023-03-22T12:34:57;100233.22;;;14.97;60.43
23473;BME280;11909;52.516;13.564;2023-03-22T12:37:45;100231.13;;;15.03;60.73
23473;BME280;11909;52.516;13.564;2023-03-22T12:40:19;100213.88;;;15.06;60.20
23473;BME280;11909;52.516;13.564;2023-03-22T12:42:53;100212.75;;;15.16;59.87
23473;BME280;11909;52.516;13.564;2023-03-22T12:45:27;100201.22;;;15.14;59.91
23473;BME280;11909;52.516;13.564;2023-03-22T12:48:03;100206.56;;;15.19;59.88
23473;BME280;11909;52.516;13.564;2023-03-22T12:50:35;100187.56;;;15.17;60.38
23473;BME280;11909;52.516;13.564;2023-03-22T12:53:05;100192.63;;;15.24;59.13
23473;BME280;11909;52.516;13.564;2023-03-22T12:55:36;100191.78;;;15.41;58.85
23473;BME280;11909;52.516;13.564;2023-03-22T12:58:05;100181.22;;;15.43;58.89
23473;BME280;11909;52.516;13.564;2023-03-22T13:00:37;100191.41;;;15.69;59.40
23473;BME280;11909;52.516;13.564;2023-03-22T13:03:23;100191.06;;;15.88;57.33